sensor_id;sensor_type;location;lat;lon;timestamp;P1;durP1;ratioP1;P2;durP2;ratioP2
71413;SDS011;59226;53.212;5.728;2022-12-16T00:00:27;1.20;;;0.50;;
71413;SDS011;59226;53.212;5.728;2022-12-16T00:02:53;0.80;;;0.47;;
71413;SDS011;59226;53.212;5.728;2022-12-16T00:05:18;0.10;;;0.10;;
71413;SDS011;59226;53.212;5.728;2022-12-16T00:07:46;0.67;;;0.60;;
71413;SDS011;59226;53.212;5.728;2022-12-16T00:10:11;0.17;;;0.17;;
71413;SDS011;59226;53.212;5.728;2022-12-16T00:12:37;0.10;;;0.10;;
71413;SDS011;59226;53.212;5.728;2022-12-16T00:15:02;0.20;;;0.20;;
71413;SDS011;59226;53.212;5.728;2022-12-16T00:17:28;0.53;;;0.33;;
71413;SDS011;59226;53.212;5.728;2022-12-16T00:19:53;0.50;;;0.30;;
71413;SDS011;59226;53.212;5.728;2022-12-16T00:22:18;0.20;;;0.20;;
71413;SDS011;59226;53.212;5.728;2022-12-16T00:24:43;0.40;;;0.30;;
71413;SDS011;59226;53.212;5.728;2022-12-16T00:27:08;0.10;;;0.10;;
71413;SDS011;59226;53.212;5.728;2022-12-16T00:29:34;0.37;;;0.27;;
71413;SDS011;59226;53.212;5.728;2022-12-16T00:31:59;0.87;;;0.47;;
71413;SDS011;59226;53.212;5.728;2022-12-16T00:34:24;0.50;;;0.30;;
71413;SDS011;59226;53.212;5.728;2022-12-16T00:36:49;0.10;;;0.10;;
71413;SDS011;59226;53.212;5.728;2022-12-16T00:39:15;0.10;;;0.10;;
71413;SDS011;59226;53.212;5.728;2022-12-16T00:41:40;0.30;;;0.30;;
71413;SDS011;59226;53.212;5.728;2022-12-16T00:44:05;0.47;;;0.40;;
71413;SDS011;59226;53.212;5.728;2022-12-16T00:46:30;0.20;;;0.20;;
71413;SDS011;59226;53.212;5.728;2022-12-16T00:48:55;0.93;;;0.63;;
71413;SDS011;59226;53.212;5.728;2022-12-16T00:51:21;0.70;;;0.50;;
71413;SDS011;59226;53.212;5.728;2022-12-16T00:53:46;0.63;;;0.57;;
71413;SDS011;59226;53.212;5.728;2022-12-16T00:56:12;0.20;;;0.20;;
71413;SDS011;59226;53.212;5.728;2022-12-16T00:58:42;0.50;;;0.30;;
71413;SDS011;59226;53.212;5.728;2022-12-16T01:01:07;1.10;;;0.53;;
71413;SDS011;59226;53.212;5.728;2022-12-16T01:03:33;0.43;;;0.43;;
71413;SDS011;59226;53.212;5.728;2022-12-16T01:05:58;0.30;;;0.28;;
71413;SDS011;59226;53.212;5.728;2022-12-16T01:08:24;0.20;;;0.10;;
71413;SDS011;59226;53.212;5.728;2022-12-16T01:10:53;0.33;;;0.27;;
71413;SDS011;59226;53.212;5.728;2022-12-16T01:13:19;0.50;;;0.20;;
71413;SDS011;59226;53.212;5.728;2022-12-16T01:15:44;0.20;;;0.10;;
71413;SDS011;59226;53.212;5.728;2022-12-16T01:18:10;1.02;;;0.60;;
71413;SDS011;59226;53.212;5.728;2022-12-16T01:20:35;0.10;;;0.10;;
71413;SDS011;59226;53.212;5.728;2022-12-16T01:23:00;0.20;;;0.20;;
71413;SDS011;59226;53.212;5.728;2022-12-16T01:25:25;0.57;;;0.30;;
71413;SDS011;59226;53.212;5.728;2022-12-16T01:27:51;1.90;;;0.67;;
71413;SDS011;59226;53.212;5.728;2022-12-16T01:30:16;0.50;;;0.40;;
71413;SDS011;59226;53.212;5.728;2022-12-16T01:32:41;0.30;;;0.27;;
71413;SDS011;59226;53.212;5.728;2022-12-16T01:35:06;0.87;;;0.53;;
71413;SDS011;59226;53.212;5.728;2022-12-16T01:37:32;0.97;;;0.80;;
71413;SDS011;59226;53.212;5.728;2022-12-16T01:39:57;0.20;;;0.20;;
71413;SDS011;59226;53.212;5.728;2022-12-16T01:42:22;0.93;;;0.70;;
71413;SDS011;59226;53.212;5.728;2022-12-16T01:44:48;0.87;;;0.50;;
71413;SDS011;59226;53.212;5.728;2022-12-16T01:47:15;0.40;;;0.30;;
71413;SDS011;59226;53.212;5.728;2022-12-16T01:52:35;1.23;;;0.20;;
71413;SDS011;59226;53.212;5.728;2022-12-16T01:57:32;0.40;;;0.20;;
71413;SDS011;59226;53.212;5.728;2022-12-16T01:59:59;0.10;;;0.10;;
71413;SDS011;59226;53.212;5.728;2022-12-16T02:02:24;0.77;;;0.63;;
71413;SDS011;59226;53.212;5.728;2022-12-16T02:04:51;0.95;;;0.30;;
71413;SDS011;59226;53.212;5.728;2022-12-16T02:07:34;0.35;;;0.20;;
71413;SDS011;59226;53.212;5.728;2022-12-16T02:10:00;0.40;;;0.30;;
71413;SDS011;59226;53.212;5.728;2022-12-16T02:12:28;0.57;;;0.30;;
71413;SDS011;59226;53.212;5.728;2022-12-16T02:20:22;0.20;;;0.10;;
71413;SDS011;59226;53.212;5.728;2022-12-16T02:30:37;0.27;;;0.23;;
71413;SDS011;59226;53.212;5.728;2022-12-16T02:35:52;0.10;;;0.10;;
71413;SDS011;59226;53.212;5.728;2022-12-16T02:38:21;0.22;;;0.22;;
71413;SDS011;59226;53.212;5.728;2022-12-16T02:40:50;0.30;;;0.20;;
71413;SDS011;59226;53.212;5.728;2022-12-16T02:46:00;0.25;;;0.25;;
71413;SDS011;59226;53.212;5.728;2022-12-16T02:48:26;0.10;;;0.10;;
71413;SDS011;59226;53.212;5.728;2022-12-16T02:50:51;2.20;;;0.87;;
71413;SDS011;59226;53.212;5.728;2022-12-16T02:53:17;0.20;;;0.20;;
71413;SDS011;59226;53.212;5.728;2022-12-16T03:06:13;0.20;;;0.20;;
71413;SDS011;59226;53.212;5.728;2022-12-16T03:08:39;0.20;;;0.20;;
71413;SDS011;59226;53.212;5.728;2022-12-16T03:11:06;0.20;;;0.20;;
71413;SDS011;59226;53.212;5.728;2022-12-16T03:13:38;0.10;;;0.10;;
71413;SDS011;59226;53.212;5.728;2022-12-16T03:16:06;0.10;;;0.10;;
71413;SDS011;59226;53.212;5.728;2022-12-16T03:18:32;0.10;;;0.10;;
71413;SDS011;59226;53.212;5.728;2022-12-16T03:20:59;0.30;;;0.28;;
71413;SDS011;59226;53.212;5.728;2022-12-16T03:23:32;0.52;;;0.40;;
71413;SDS011;59226;53.212;5.728;2022-12-16T03:26:01;0.10;;;0.10;;
71413;SDS011;59226;53.212;5.728;2022-12-16T03:28:43;0.30;;;0.30;;
71413;SDS011;59226;53.212;5.728;2022-12-16T03:33:48;1.05;;;0.70;;
71413;SDS011;59226;53.212;5.728;2022-12-16T03:36:19;0.35;;;0.25;;
71413;SDS011;59226;53.212;5.728;2022-12-16T03:38:46;0.83;;;0.50;;
71413;SDS011;59226;53.212;5.728;2022-12-16T03:41:11;0.25;;;0.20;;
71413;SDS011;59226;53.212;5.728;2022-12-16T03:43:38;1.23;;;0.47;;
71413;SDS011;59226;53.212;5.728;2022-12-16T03:46:04;0.50;;;0.30;;
71413;SDS011;59226;53.212;5.728;2022-12-16T03:48:30;0.40;;;0.20;;
71413;SDS011;59226;53.212;5.728;2022-12-16T03:50:55;0.67;;;0.50;;
71413;SDS011;59226;53.212;5.728;2022-12-16T03:53:20;0.30;;;0.30;;
71413;SDS011;59226;53.212;5.728;2022-12-16T03:55:50;0.10;;;0.10;;
71413;SDS011;59226;53.212;5.728;2022-12-16T03:58:15;0.10;;;0.10;;
71413;SDS011;59226;53.212;5.728;2022-12-16T04:00:40;0.70;;;0.30;;
71413;SDS011;59226;53.212;5.728;2022-12-16T04:03:06;0.20;;;0.20;;
71413;SDS011;59226;53.212;5.728;2022-12-16T04:05:31;1.27;;;0.50;;
71413;SDS011;59226;53.212;5.728;2022-12-16T04:07:56;0.70;;;0.30;;
71413;SDS011;59226;53.212;5.728;2022-12-16T04:10:22;1.27;;;0.50;;
71413;SDS011;59226;53.212;5.728;2022-12-16T04:13:08;2.37;;;1.13;;
71413;SDS011;59226;53.212;5.728;2022-12-16T04:15:52;1.50;;;0.52;;
71413;SDS011;59226;53.212;5.728;2022-12-16T04:18:35;0.82;;;0.60;;
71413;SDS011;59226;53.212;5.728;2022-12-16T04:21:20;0.60;;;0.35;;
71413;SDS011;59226;53.212;5.728;2022-12-16T04:24:04;0.40;;;0.28;;
71413;SDS011;59226;53.212;5.728;2022-12-16T04:26:46;0.83;;;0.50;;
71413;SDS011;59226;53.212;5.728;2022-12-16T04:29:30;0.30;;;0.25;;
71413;SDS011;59226;53.212;5.728;2022-12-16T04:31:58;0.68;;;0.38;;
71413;SDS011;59226;53.212;5.728;2022-12-16T04:34:24;5.00;;;0.67;;
71413;SDS011;59226;53.212;5.728;2022-12-16T04:36:49;0.30;;;0.30;;
71413;SDS011;59226;53.212;5.728;2022-12-16T04:39:33;0.57;;;0.53;;
71413;SDS011;59226;53.212;5.728;2022-12-16T04:42:17;0.20;;;0.20;;
71413;SDS011;59226;53.212;5.728;2022-12-16T04:45:01;2.08;;;0.95;;
71413;SDS011;59226;53.212;5.728;2022-12-16T04:47:44;0.52;;;0.40;;
71413;SDS011;59226;53.212;5.728;2022-12-16T04:50:28;1.17;;;0.47;;
71413;SDS011;59226;53.212;5.728;2022-12-16T04:53:12;0.70;;;0.40;;
71413;SDS011;59226;53.212;5.728;2022-12-16T04:55:56;1.20;;;0.52;;
71413;SDS011;59226;53.212;5.728;2022-12-16T04:58:40;1.38;;;0.73;;
71413;SDS011;59226;53.212;5.728;2022-12-16T05:01:24;0.43;;;0.40;;
71413;SDS011;59226;53.212;5.728;2022-12-16T05:04:08;1.75;;;0.50;;
71413;SDS011;59226;53.212;5.728;2022-12-16T05:06:52;0.10;;;0.10;;
71413;SDS011;59226;53.212;5.728;2022-12-16T05:09:36;0.50;;;0.40;;
71413;SDS011;59226;53.212;5.728;2022-12-16T05:12:20;0.30;;;0.25;;
71413;SDS011;59226;53.212;5.728;2022-12-16T05:15:04;0.85;;;0.30;;
71413;SDS011;59226;53.212;5.728;2022-12-16T05:17:48;0.55;;;0.30;;
71413;SDS011;59226;53.212;5.728;2022-12-16T05:20:32;1.43;;;0.70;;
71413;SDS011;59226;53.212;5.728;2022-12-16T05:23:16;0.70;;;0.40;;
71413;SDS011;59226;53.212;5.728;2022-12-16T05:26:00;0.10;;;0.10;;
71413;SDS011;59226;53.212;5.728;2022-12-16T05:28:43;0.30;;;0.30;;
71413;SDS011;59226;53.212;5.728;2022-12-16T05:31:38;0.50;;;0.32;;
71413;SDS011;59226;53.212;5.728;2022-12-16T05:34:22;0.57;;;0.53;;
71413;SDS011;59226;53.212;5.728;2022-12-16T05:37:06;0.30;;;0.20;;
71413;SDS011;59226;53.212;5.728;2022-12-16T05:39:50;1.60;;;0.60;;
71413;SDS011;59226;53.212;5.728;2022-12-16T05:42:33;0.68;;;0.40;;
71413;SDS011;59226;53.212;5.728;2022-12-16T05:45:17;0.45;;;0.38;;
71413;SDS011;59226;53.212;5.728;2022-12-16T05:48:09;0.20;;;0.17;;
71413;SDS011;59226;53.212;5.728;2022-12-16T05:50:53;0.50;;;0.30;;
71413;SDS011;59226;53.212;5.728;2022-12-16T05:53:37;0.10;;;0.10;;
71413;SDS011;59226;53.212;5.728;2022-12-16T05:56:21;0.30;;;0.22;;
71413;SDS011;59226;53.212;5.728;2022-12-16T05:59:05;0.28;;;0.20;;
71413;SDS011;59226;53.212;5.728;2022-12-16T06:01:49;0.20;;;0.10;;
71413;SDS011;59226;53.212;5.728;2022-12-16T06:04:32;1.23;;;0.70;;
71413;SDS011;59226;53.212;5.728;2022-12-16T06:07:17;0.77;;;0.30;;
71413;SDS011;59226;53.212;5.728;2022-12-16T06:10:00;0.20;;;0.10;;
71413;SDS011;59226;53.212;5.728;2022-12-16T06:12:52;0.20;;;0.10;;
71413;SDS011;59226;53.212;5.728;2022-12-16T06:15:36;0.20;;;0.20;;
71413;SDS011;59226;53.212;5.728;2022-12-16T06:18:20;0.20;;;0.20;;
71413;SDS011;59226;53.212;5.728;2022-12-16T06:21:04;0.40;;;0.20;;
71413;SDS011;59226;53.212;5.728;2022-12-16T06:23:47;0.20;;;0.10;;
71413;SDS011;59226;53.212;5.728;2022-12-16T06:26:31;0.25;;;0.15;;
71413;SDS011;59226;53.212;5.728;2022-12-16T06:29:15;0.30;;;0.30;;
71413;SDS011;59226;53.212;5.728;2022-12-16T06:31:59;0.25;;;0.22;;
71413;SDS011;59226;53.212;5.728;2022-12-16T06:34:43;6.75;;;0.40;;
71413;SDS011;59226;53.212;5.728;2022-12-16T06:37:27;0.20;;;0.17;;
71413;SDS011;59226;53.212;5.728;2022-12-16T06:40:11;0.93;;;0.40;;
71413;SDS011;59226;53.212;5.728;2022-12-16T06:42:55;0.20;;;0.10;;
71413;SDS011;59226;53.212;5.728;2022-12-16T06:45:39;0.55;;;0.30;;
71413;SDS011;59226;53.212;5.728;2022-12-16T06:48:23;1.30;;;0.75;;
71413;SDS011;59226;53.212;5.728;2022-12-16T06:51:06;0.40;;;0.30;;
71413;SDS011;59226;53.212;5.728;2022-12-16T06:53:50;0.55;;;0.30;;
71413;SDS011;59226;53.212;5.728;2022-12-16T06:56:35;1.47;;;0.93;;
71413;SDS011;59226;53.212;5.728;2022-12-16T06:59:18;0.75;;;0.30;;
71413;SDS011;59226;53.212;5.728;2022-12-16T07:02:02;0.40;;;0.30;;
71413;SDS011;59226;53.212;5.728;2022-12-16T07:04:46;0.20;;;0.20;;
71413;SDS011;59226;53.212;5.728;2022-12-16T07:07:30;1.27;;;0.82;;
71413;SDS011;59226;53.212;5.728;2022-12-16T07:10:14;1.87;;;0.90;;
71413;SDS011;59226;53.212;5.728;2022-12-16T07:12:58;2.15;;;0.68;;
71413;SDS011;59226;53.212;5.728;2022-12-16T07:15:44;0.70;;;0.45;;
71413;SDS011;59226;53.212;5.728;2022-12-16T07:18:41;0.43;;;0.22;;
71413;SDS011;59226;53.212;5.728;2022-12-16T07:21:25;1.00;;;0.68;;
71413;SDS011;59226;53.212;5.728;2022-12-16T07:24:09;0.33;;;0.30;;
71413;SDS011;59226;53.212;5.728;2022-12-16T07:26:53;8.18;;;0.93;;
71413;SDS011;59226;53.212;5.728;2022-12-16T07:29:37;0.30;;;0.30;;
71413;SDS011;59226;53.212;5.728;2022-12-16T07:32:20;1.52;;;0.30;;
71413;SDS011;59226;53.212;5.728;2022-12-16T07:35:04;1.48;;;0.82;;
71413;SDS011;59226;53.212;5.728;2022-12-16T07:37:48;0.47;;;0.30;;
71413;SDS011;59226;53.212;5.728;2022-12-16T07:40:32;0.68;;;0.45;;
71413;SDS011;59226;53.212;5.728;2022-12-16T07:43:16;0.60;;;0.30;;
71413;SDS011;59226;53.212;5.728;2022-12-16T07:46:00;0.35;;;0.35;;
71413;SDS011;59226;53.212;5.728;2022-12-16T07:48:44;0.40;;;0.20;;
71413;SDS011;59226;53.212;5.728;2022-12-16T07:51:28;0.20;;;0.20;;
71413;SDS011;59226;53.212;5.728;2022-12-16T07:54:12;0.35;;;0.30;;
71413;SDS011;59226;53.212;5.728;2022-12-16T07:56:56;0.90;;;0.50;;
71413;SDS011;59226;53.212;5.728;2022-12-16T07:59:47;1.48;;;1.00;;
71413;SDS011;59226;53.212;5.728;2022-12-16T08:02:31;0.43;;;0.35;;
71413;SDS011;59226;53.212;5.728;2022-12-16T08:05:15;0.40;;;0.33;;
71413;SDS011;59226;53.212;5.728;2022-12-16T08:07:58;2.78;;;0.98;;
71413;SDS011;59226;53.212;5.728;2022-12-16T08:10:42;0.30;;;0.30;;
71413;SDS011;59226;53.212;5.728;2022-12-16T08:13:26;0.93;;;0.65;;
71413;SDS011;59226;53.212;5.728;2022-12-16T08:16:10;0.30;;;0.30;;
71413;SDS011;59226;53.212;5.728;2022-12-16T08:18:54;0.20;;;0.20;;
71413;SDS011;59226;53.212;5.728;2022-12-16T08:21:38;0.95;;;0.75;;
71413;SDS011;59226;53.212;5.728;2022-12-16T08:24:22;2.47;;;1.23;;
71413;SDS011;59226;53.212;5.728;2022-12-16T08:27:06;0.77;;;0.50;;
71413;SDS011;59226;53.212;5.728;2022-12-16T08:29:50;0.40;;;0.40;;
71413;SDS011;59226;53.212;5.728;2022-12-16T08:32:34;1.53;;;0.50;;
71413;SDS011;59226;53.212;5.728;2022-12-16T08:35:17;1.38;;;0.95;;
71413;SDS011;59226;53.212;5.728;2022-12-16T08:38:01;0.52;;;0.30;;
71413;SDS011;59226;53.212;5.728;2022-12-16T08:40:45;0.90;;;0.30;;
71413;SDS011;59226;53.212;5.728;2022-12-16T08:43:30;0.20;;;0.20;;
71413;SDS011;59226;53.212;5.728;2022-12-16T08:46:14;0.67;;;0.57;;
71413;SDS011;59226;53.212;5.728;2022-12-16T08:48:58;0.63;;;0.50;;
71413;SDS011;59226;53.212;5.728;2022-12-16T08:51:42;0.52;;;0.43;;
71413;SDS011;59226;53.212;5.728;2022-12-16T08:54:26;0.20;;;0.20;;
71413;SDS011;59226;53.212;5.728;2022-12-16T08:57:10;1.05;;;0.60;;
71413;SDS011;59226;53.212;5.728;2022-12-16T08:59:54;0.20;;;0.20;;
71413;SDS011;59226;53.212;5.728;2022-12-16T09:02:38;0.22;;;0.22;;
71413;SDS011;59226;53.212;5.728;2022-12-16T09:05:22;0.30;;;0.20;;
71413;SDS011;59226;53.212;5.728;2022-12-16T09:08:10;0.85;;;0.52;;
71413;SDS011;59226;53.212;5.728;2022-12-16T09:10:54;4.07;;;0.60;;
71413;SDS011;59226;53.212;5.728;2022-12-16T09:13:38;1.03;;;0.60;;
71413;SDS011;59226;53.212;5.728;2022-12-16T09:16:22;1.05;;;0.82;;
71413;SDS011;59226;53.212;5.728;2022-12-16T09:19:06;0.40;;;0.32;;
71413;SDS011;59226;53.212;5.728;2022-12-16T09:21:50;0.77;;;0.45;;
71413;SDS011;59226;53.212;5.728;2022-12-16T09:24:33;0.43;;;0.20;;
71413;SDS011;59226;53.212;5.728;2022-12-16T09:27:17;0.37;;;0.30;;
71413;SDS011;59226;53.212;5.728;2022-12-16T09:30:01;0.70;;;0.47;;
71413;SDS011;59226;53.212;5.728;2022-12-16T09:32:45;0.10;;;0.10;;
71413;SDS011;59226;53.212;5.728;2022-12-16T09:35:29;4.22;;;0.68;;
71413;SDS011;59226;53.212;5.728;2022-12-16T09:38:13;0.20;;;0.20;;
71413;SDS011;59226;53.212;5.728;2022-12-16T09:40:59;0.37;;;0.30;;
71413;SDS011;59226;53.212;5.728;2022-12-16T09:46:59;1.02;;;0.50;;
71413;SDS011;59226;53.212;5.728;2022-12-16T09:49:47;1.50;;;0.93;;
71413;SDS011;59226;53.212;5.728;2022-12-16T09:52:36;0.57;;;0.43;;
71413;SDS011;59226;53.212;5.728;2022-12-16T09:55:26;0.33;;;0.30;;
71413;SDS011;59226;53.212;5.728;2022-12-16T09:58:11;0.82;;;0.65;;
71413;SDS011;59226;53.212;5.728;2022-12-16T10:00:56;2.20;;;0.70;;
71413;SDS011;59226;53.212;5.728;2022-12-16T10:03:40;0.57;;;0.40;;
71413;SDS011;59226;53.212;5.728;2022-12-16T10:06:29;2.08;;;0.45;;
71413;SDS011;59226;53.212;5.728;2022-12-16T10:15:11;0.38;;;0.28;;
71413;SDS011;59226;53.212;5.728;2022-12-16T10:17:56;0.32;;;0.25;;
71413;SDS011;59226;53.212;5.728;2022-12-16T10:20:45;1.35;;;0.40;;
71413;SDS011;59226;53.212;5.728;2022-12-16T10:29:33;1.40;;;0.73;;
71413;SDS011;59226;53.212;5.728;2022-12-16T10:35:02;1.17;;;1.02;;
71413;SDS011;59226;53.212;5.728;2022-12-16T10:37:49;0.60;;;0.50;;
71413;SDS011;59226;53.212;5.728;2022-12-16T10:40:33;1.48;;;0.75;;
71413;SDS011;59226;53.212;5.728;2022-12-16T10:43:19;1.13;;;0.65;;
71413;SDS011;59226;53.212;5.728;2022-12-16T10:46:04;2.85;;;0.98;;
71413;SDS011;59226;53.212;5.728;2022-12-16T10:48:50;2.92;;;0.80;;
71413;SDS011;59226;53.212;5.728;2022-12-16T10:51:34;0.97;;;0.43;;
71413;SDS011;59226;53.212;5.728;2022-12-16T11:00:18;4.60;;;2.45;;
71413;SDS011;59226;53.212;5.728;2022-12-16T11:06:24;2.13;;;1.03;;
71413;SDS011;59226;53.212;5.728;2022-12-16T11:09:20;2.00;;;1.08;;
71413;SDS011;59226;53.212;5.728;2022-12-16T11:14:56;1.33;;;0.93;;
71413;SDS011;59226;53.212;5.728;2022-12-16T11:17:40;2.10;;;1.05;;
71413;SDS011;59226;53.212;5.728;2022-12-16T11:20:40;3.40;;;1.90;;
71413;SDS011;59226;53.212;5.728;2022-12-16T11:23:24;1.27;;;0.90;;
71413;SDS011;59226;53.212;5.728;2022-12-16T11:26:18;1.85;;;0.95;;
71413;SDS011;59226;53.212;5.728;2022-12-16T11:31:56;1.88;;;1.20;;
71413;SDS011;59226;53.212;5.728;2022-12-16T11:34:41;0.40;;;0.37;;
71413;SDS011;59226;53.212;5.728;2022-12-16T11:37:26;1.23;;;0.85;;
71413;SDS011;59226;53.212;5.728;2022-12-16T11:40:12;2.92;;;1.38;;
71413;SDS011;59226;53.212;5.728;2022-12-16T11:42:57;3.45;;;1.92;;
71413;SDS011;59226;53.212;5.728;2022-12-16T11:45:42;3.55;;;2.13;;
71413;SDS011;59226;53.212;5.728;2022-12-16T11:48:31;6.83;;;2.07;;
71413;SDS011;59226;53.212;5.728;2022-12-16T11:51:30;2.95;;;2.05;;
71413;SDS011;59226;53.212;5.728;2022-12-16T11:54:28;4.25;;;2.75;;
71413;SDS011;59226;53.212;5.728;2022-12-16T11:57:23;4.63;;;3.35;;
71413;SDS011;59226;53.212;5.728;2022-12-16T12:00:15;8.00;;;3.53;;
71413;SDS011;59226;53.212;5.728;2022-12-16T12:05:57;6.28;;;3.22;;
71413;SDS011;59226;53.212;5.728;2022-12-16T12:08:59;9.98;;;4.22;;
71413;SDS011;59226;53.212;5.728;2022-12-16T12:11:56;7.50;;;3.95;;
71413;SDS011;59226;53.212;5.728;2022-12-16T12:17:34;7.47;;;4.23;;
71413;SDS011;59226;53.212;5.728;2022-12-16T12:23:10;7.97;;;4.50;;
71413;SDS011;59226;53.212;5.728;2022-12-16T12:26:02;7.88;;;3.80;;
71413;SDS011;59226;53.212;5.728;2022-12-16T12:28:51;7.63;;;3.97;;
71413;SDS011;59226;53.212;5.728;2022-12-16T12:38:28;13.27;;;6.07;;
71413;SDS011;59226;53.212;5.728;2022-12-16T12:41:20;6.55;;;3.50;;
71413;SDS011;59226;53.212;5.728;2022-12-16T12:49:54;7.35;;;3.75;;
71413;SDS011;59226;53.212;5.728;2022-12-16T12:52:59;13.40;;;5.10;;
71413;SDS011;59226;53.212;5.728;2022-12-16T12:55:49;6.75;;;4.60;;
71413;SDS011;59226;53.212;5.728;2022-12-16T12:58:36;4.75;;;2.78;;
71413;SDS011;59226;53.212;5.728;2022-12-16T13:01:20;8.77;;;4.67;;
71413;SDS011;59226;53.212;5.728;2022-12-16T13:04:12;9.50;;;4.00;;
71413;SDS011;59226;53.212;5.728;2022-12-16T13:06:58;7.20;;;2.30;;
71413;SDS011;59226;53.212;5.728;2022-12-16T13:09:42;12.68;;;5.10;;
71413;SDS011;59226;53.212;5.728;2022-12-16T13:12:27;8.23;;;5.32;;
71413;SDS011;59226;53.212;5.728;2022-12-16T13:15:32;7.77;;;3.57;;
71413;SDS011;59226;53.212;5.728;2022-12-16T13:18:20;4.30;;;1.90;;
71413;SDS011;59226;53.212;5.728;2022-12-16T13:21:34;11.05;;;4.32;;
71413;SDS011;59226;53.212;5.728;2022-12-16T13:27:14;13.43;;;5.00;;
71413;SDS011;59226;53.212;5.728;2022-12-16T13:32:55;8.13;;;4.82;;
71413;SDS011;59226;53.212;5.728;2022-12-16T13:35:55;8.32;;;4.55;;
71413;SDS011;59226;53.212;5.728;2022-12-16T13:38:46;7.25;;;3.88;;
71413;SDS011;59226;53.212;5.728;2022-12-16T13:47:35;8.48;;;3.05;;
71413;SDS011;59226;53.212;5.728;2022-12-16T13:50:40;5.45;;;3.95;;
71413;SDS011;59226;53.212;5.728;2022-12-16T13:53:31;7.07;;;3.80;;
71413;SDS011;59226;53.212;5.728;2022-12-16T13:56:17;7.75;;;5.10;;
71413;SDS011;59226;53.212;5.728;2022-12-16T13:59:03;9.87;;;2.97;;
71413;SDS011;59226;53.212;5.728;2022-12-16T14:01:50;10.38;;;3.78;;
71413;SDS011;59226;53.212;5.728;2022-12-16T14:04:36;13.23;;;3.30;;
71413;SDS011;59226;53.212;5.728;2022-12-16T14:07:20;5.88;;;3.72;;
71413;SDS011;59226;53.212;5.728;2022-12-16T14:10:04;6.47;;;3.63;;
71413;SDS011;59226;53.212;5.728;2022-12-16T14:12:54;12.87;;;5.97;;
71413;SDS011;59226;53.212;5.728;2022-12-16T14:15:54;4.05;;;2.75;;
71413;SDS011;59226;53.212;5.728;2022-12-16T14:25:26;11.00;;;4.72;;
71413;SDS011;59226;53.212;5.728;2022-12-16T14:31:03;12.48;;;4.38;;
71413;SDS011;59226;53.212;5.728;2022-12-16T14:33:51;10.13;;;5.22;;
71413;SDS011;59226;53.212;5.728;2022-12-16T14:36:37;8.02;;;4.15;;
71413;SDS011;59226;53.212;5.728;2022-12-16T14:39:22;16.05;;;6.18;;
71413;SDS011;59226;53.212;5.728;2022-12-16T14:42:17;6.20;;;3.53;;
71413;SDS011;59226;53.212;5.728;2022-12-16T14:45:01;12.50;;;4.65;;
71413;SDS011;59226;53.212;5.728;2022-12-16T14:47:45;5.90;;;3.63;;
71413;SDS011;59226;53.212;5.728;2022-12-16T14:50:29;12.80;;;5.68;;
71413;SDS011;59226;53.212;5.728;2022-12-16T14:53:20;8.57;;;4.35;;
71413;SDS011;59226;53.212;5.728;2022-12-16T14:56:22;5.73;;;4.30;;
71413;SDS011;59226;53.212;5.728;2022-12-16T14:59:17;6.25;;;2.72;;
71413;SDS011;59226;53.212;5.728;2022-12-16T15:02:11;5.65;;;2.70;;
71413;SDS011;59226;53.212;5.728;2022-12-16T15:04:56;5.82;;;3.60;;
71413;SDS011;59226;53.212;5.728;2022-12-16T15:07:40;12.48;;;4.65;;
71413;SDS011;59226;53.212;5.728;2022-12-16T15:10:24;8.33;;;4.40;;
71413;SDS011;59226;53.212;5.728;2022-12-16T15:13:12;9.15;;;4.80;;
71413;SDS011;59226;53.212;5.728;2022-12-16T15:15:57;9.50;;;4.45;;
71413;SDS011;59226;53.212;5.728;2022-12-16T15:18:42;5.57;;;3.92;;
71413;SDS011;59226;53.212;5.728;2022-12-16T15:21:26;7.13;;;3.45;;
71413;SDS011;59226;53.212;5.728;2022-12-16T15:24:15;8.33;;;3.97;;
71413;SDS011;59226;53.212;5.728;2022-12-16T15:27:12;6.45;;;3.67;;
71413;SDS011;59226;53.212;5.728;2022-12-16T15:29:56;5.97;;;3.72;;
71413;SDS011;59226;53.212;5.728;2022-12-16T15:32:40;10.13;;;7.00;;
71413;SDS011;59226;53.212;5.728;2022-12-16T15:40:58;11.40;;;4.57;;
71413;SDS011;59226;53.212;5.728;2022-12-16T15:43:43;17.50;;;4.70;;
71413;SDS011;59226;53.212;5.728;2022-12-16T15:46:27;7.70;;;4.93;;
71413;SDS011;59226;53.212;5.728;2022-12-16T15:49:19;13.93;;;4.25;;
71413;SDS011;59226;53.212;5.728;2022-12-16T15:58:13;9.30;;;4.25;;
71413;SDS011;59226;53.212;5.728;2022-12-16T16:00:58;5.88;;;4.38;;
71413;SDS011;59226;53.212;5.728;2022-12-16T16:03:47;10.25;;;3.88;;
71413;SDS011;59226;53.212;5.728;2022-12-16T16:06:31;5.53;;;2.93;;
71413;SDS011;59226;53.212;5.728;2022-12-16T16:12:03;9.60;;;4.55;;
71413;SDS011;59226;53.212;5.728;2022-12-16T16:14:47;4.53;;;3.63;;
71413;SDS011;59226;53.212;5.728;2022-12-16T16:17:31;7.80;;;4.28;;
71413;SDS011;59226;53.212;5.728;2022-12-16T16:20:15;6.90;;;3.57;;
71413;SDS011;59226;53.212;5.728;2022-12-16T16:22:59;3.92;;;2.92;;
71413;SDS011;59226;53.212;5.728;2022-12-16T16:25:43;2.85;;;2.30;;
71413;SDS011;59226;53.212;5.728;2022-12-16T16:28:27;4.95;;;2.60;;
71413;SDS011;59226;53.212;5.728;2022-12-16T16:31:11;9.95;;;3.20;;
71413;SDS011;59226;53.212;5.728;2022-12-16T16:33:55;9.37;;;3.40;;
71413;SDS011;59226;53.212;5.728;2022-12-16T16:36:39;4.63;;;3.67;;
71413;SDS011;59226;53.212;5.728;2022-12-16T16:39:23;7.47;;;2.92;;
71413;SDS011;59226;53.212;5.728;2022-12-16T16:42:08;9.10;;;4.22;;
71413;SDS011;59226;53.212;5.728;2022-12-16T16:44:52;7.60;;;4.15;;
71413;SDS011;59226;53.212;5.728;2022-12-16T16:47:35;9.00;;;4.37;;
71413;SDS011;59226;53.212;5.728;2022-12-16T16:50:19;3.50;;;2.45;;
71413;SDS011;59226;53.212;5.728;2022-12-16T16:53:03;10.27;;;3.40;;
71413;SDS011;59226;53.212;5.728;2022-12-16T16:55:48;9.82;;;5.38;;
71413;SDS011;59226;53.212;5.728;2022-12-16T16:58:35;7.13;;;4.00;;
71413;SDS011;59226;53.212;5.728;2022-12-16T17:01:19;6.20;;;3.17;;
71413;SDS011;59226;53.212;5.728;2022-12-16T17:04:03;9.10;;;3.60;;
71413;SDS011;59226;53.212;5.728;2022-12-16T17:06:47;14.02;;;4.60;;
71413;SDS011;59226;53.212;5.728;2022-12-16T17:09:31;4.90;;;2.20;;
71413;SDS011;59226;53.212;5.728;2022-12-16T17:12:19;5.00;;;3.97;;
71413;SDS011;59226;53.212;5.728;2022-12-16T17:15:22;7.63;;;3.67;;
71413;SDS011;59226;53.212;5.728;2022-12-16T17:18:07;14.48;;;5.10;;
71413;SDS011;59226;53.212;5.728;2022-12-16T17:20:51;4.97;;;2.40;;
71413;SDS011;59226;53.212;5.728;2022-12-16T17:23:35;6.50;;;4.10;;
71413;SDS011;59226;53.212;5.728;2022-12-16T17:26:19;6.43;;;2.78;;
71413;SDS011;59226;53.212;5.728;2022-12-16T17:29:03;10.13;;;5.00;;
71413;SDS011;59226;53.212;5.728;2022-12-16T17:31:47;19.27;;;4.72;;
71413;SDS011;59226;53.212;5.728;2022-12-16T17:34:31;28.13;;;9.52;;
71413;SDS011;59226;53.212;5.728;2022-12-16T17:37:15;23.67;;;9.82;;
71413;SDS011;59226;53.212;5.728;2022-12-16T17:39:59;14.63;;;6.78;;
71413;SDS011;59226;53.212;5.728;2022-12-16T17:42:54;14.37;;;6.57;;
71413;SDS011;59226;53.212;5.728;2022-12-16T17:45:37;10.80;;;4.90;;
71413;SDS011;59226;53.212;5.728;2022-12-16T17:48:21;5.82;;;4.03;;
71413;SDS011;59226;53.212;5.728;2022-12-16T17:51:05;4.50;;;3.55;;
71413;SDS011;59226;53.212;5.728;2022-12-16T17:53:49;6.85;;;3.38;;
71413;SDS011;59226;53.212;5.728;2022-12-16T17:56:33;6.47;;;3.43;;
71413;SDS011;59226;53.212;5.728;2022-12-16T17:59:17;3.97;;;3.00;;
71413;SDS011;59226;53.212;5.728;2022-12-16T18:02:01;5.18;;;3.50;;
71413;SDS011;59226;53.212;5.728;2022-12-16T18:04:45;6.65;;;3.28;;
71413;SDS011;59226;53.212;5.728;2022-12-16T18:07:29;15.27;;;4.40;;
71413;SDS011;59226;53.212;5.728;2022-12-16T18:10:13;6.00;;;4.07;;
71413;SDS011;59226;53.212;5.728;2022-12-16T18:12:57;6.80;;;4.25;;
71413;SDS011;59226;53.212;5.728;2022-12-16T18:15:41;7.53;;;4.68;;